Time;durP1;ratioP1;P1;durP2;ratioP2;P2;SDS_P1;SDS_P2;PMS_P1;PMS_P2;Temp;Humidity;BMP_temperature;BMP_pressure;BME280_temperature;BME280_humidity;BME280_pressure;Samples;Min_cycle;Max_cycle;Signal;HPM_P1;HPM_P2
2023/01/22 00:02:15;;;;;;;23.67;11.75;;;;;;;-2.21;95.70;96681.44;5030769;28;20045;-85
2023/01/22 00:04:42;;;;;;;25.13;12.18;;;;;;;-2.18;95.83;96672.97;5039732;28;20049;-81
2023/01/22 00:07:08;;;;;;;28.73;13.07;;;;;;;-2.12;95.64;96672.06;5037789;28;20048;-81
2023/01/22 00:09:35;;;;;;;28.40;12.77;;;;;;;-2.07;95.48;96674.03;5046444;28;20401;-87
2023/01/22 00:12:01;;;;;;;23.65;12.25;;;;;;;-1.98;95.04;96668.13;5038105;28;20038;-81
2023/01/22 00:14:29;;;;;;;24.65;11.98;;;;;;;-1.98;94.52;96665.47;5038892;28;20045;-84
2023/01/22 00:16:56;;;;;;;28.65;12.25;;;;;;;-1.92;94.55;96661.06;5038291;28;20042;-84
2023/01/22 00:19:22;;;;;;;25.00;12.23;;;;;;;-1.93;94.28;96659.41;5045957;28;20068;-82
2023/01/22 00:21:49;;;;;;;27.30;13.00;;;;;;;-1.93;93.98;96664.75;5054150;28;20047;-88
2023/01/22 00:24:15;;;;;;;27.98;12.68;;;;;;;-2.04;94.20;96669.03;5056279;28;20432;-82
2023/01/22 00:26:42;;;;;;;24.40;12.88;;;;;;;-1.97;94.10;96669.75;5040492;28;20053;-80
2023/01/22 00:29:08;;;;;;;28.20;14.35;;;;;;;-2.11;94.43;96669.16;5056668;28;20041;-85
2023/01/22 00:31:37;;;;;;;28.50;13.05;;;;;;;-2.19;95.27;96663.34;5046152;28;20412;-85
2023/01/22 00:34:04;;;;;;;29.85;13.82;;;;;;;-2.14;95.11;96666.13;5046193;28;20045;-89
2023/01/22 00:36:31;;;;;;;30.85;12.50;;;;;;;-2.10;94.64;96664.63;5038626;28;20508;-85
2023/01/22 00:38:57;;;;;;;26.60;12.80;;;;;;;-2.11;94.69;96673.69;5049421;28;20410;-88
2023/01/22 00:41:24;;;;;;;29.42;13.52;;;;;;;-2.20;95.37;96675.03;5047326;28;20041;-82
2023/01/22 00:43:51;;;;;;;26.27;13.20;;;;;;;-2.25;95.53;96672.25;5048304;28;20044;-84
2023/01/22 00:46:18;;;;;;;31.58;13.40;;;;;;;-2.25;96.05;96678.38;5043476;28;20054;-80
2023/01/22 00:48:48;;;;;;;27.90;13.60;;;;;;;-2.17;95.70;96675.41;5047247;28;20041;-81
2023/01/22 00:51:15;;;;;;;28.48;12.80;;;;;;;-2.19;95.92;96682.03;5054343;28;20485;-78
2023/01/22 00:53:42;;;;;;;34.00;14.82;;;;;;;-2.30;96.00;96674.78;5053067;28;20483;-81
2023/01/22 00:56:10;;;;;;;26.33;13.20;;;;;;;-2.17;96.05;96686.06;5061732;28;20041;-79
2023/01/22 00:58:37;;;;;;;30.23;14.32;;;;;;;-2.09;95.38;96682.25;5045644;28;20501;-81
2023/01/22 01:01:04;;;;;;;30.05;14.52;;;;;;;-2.08;95.51;96683.91;5047920;28;20048;-84
2023/01/22 01:03:31;;;;;;;34.15;14.63;;;;;;;-2.19;95.95;96679.34;5040987;28;20037;-84
2023/01/22 01:06:01;;;;;;;34.03;14.93;;;;;;;-2.41;96.93;96679.84;5031001;28;20036;-80
2023/01/22 01:08:30;;;;;;;29.45;13.98;;;;;;;-2.23;96.33;96686.19;5045873;28;20485;-82
2023/01/22 01:10:59;;;;;;;29.83;13.88;;;;;;;-2.30;96.52;96690.78;5049242;28;20493;-82
2023/01/22 01:13:26;;;;;;;30.63;14.23;;;;;;;-2.41;97.36;96682.53;5043078;28;20408;-82
2023/01/22 01:15:59;;;;;;;33.85;14.88;;;;;;;-2.37;97.44;96691.72;5036199;28;20045;-81
2023/01/22 01:18:26;;;;;;;31.05;14.88;;;;;;;-2.27;96.96;96685.81;5032302;28;20037;-81
2023/01/22 01:20:54;;;;;;;33.85;15.75;;;;;;;-2.37;96.77;96691.72;5033410;28;20046;-82
2023/01/22 01:23:22;;;;;;;31.05;15.43;;;;;;;-2.45;97.87;96694.72;5041225;28;20144;-84
2023/01/22 01:25:48;;;;;;;35.08;15.48;;;;;;;-2.47;97.78;96691.44;5041385;28;20037;-81
2023/01/22 01:28:15;;;;;;;30.20;14.68;;;;;;;-2.58;98.59;96694.88;5041582;28;20612;-80
2023/01/22 01:30:41;;;;;;;32.17;14.98;;;;;;;-2.48;98.49;96695.16;5033390;28;20066;-82
2023/01/22 01:33:08;;;;;;;35.03;15.90;;;;;;;-2.47;98.57;96690.63;5032567;28;20046;-80
2023/01/22 01:35:34;;;;;;;34.28;15.35;;;;;;;-2.53;99.38;96692.34;5033016;28;20045;-84
2023/01/22 01:38:01;;;;;;;31.27;14.50;;;;;;;-2.45;99.06;96688.56;5033019;28;20042;-78
2023/01/22 01:40:29;;;;;;;34.47;15.43;;;;;;;-2.50;99.27;96683.91;5032574;28;20049;-81
2023/01/22 01:42:55;;;;;;;30.48;14.18;;;;;;;-2.40;98.85;96692.19;5032488;28;20042;-80
2023/01/22 01:45:26;;;;;;;34.20;15.68;;;;;;;-2.41;98.72;96690.53;5043358;28;20049;-83
2023/01/22 01:47:59;;;;;;;33.88;15.15;;;;;;;-2.34;98.88;96686.97;5036307;28;20041;-83
2023/01/22 01:50:26;;;;;;;;;;;;;;;-2.26;98.44;96692.78;5041102;28;20053;-85
2023/01/22 01:52:53;;;;;;;46.92;16.60;;;;;;;-2.16;97.88;96692.22;5033200;28;20353;-81
2023/01/22 01:55:25;;;;;;;34.00;14.68;;;;;;;-2.20;97.54;96691.03;5032329;28;20521;-83
2023/01/22 01:57:55;;;;;;;28.88;13.52;;;;;;;-2.10;97.39;96685.97;5041045;28;20132;-79
2023/01/22 02:00:22;;;;;;;28.30;14.05;;;;;;;-2.04;97.16;96690.38;5032014;28;20038;-82
2023/01/22 02:02:49;;;;;;;29.30;14.70;;;;;;;-2.01;96.94;96689.94;5041323;28;20413;-83
2023/01/22 02:05:19;;;;;;;31.00;15.32;;;;;;;-1.98;96.82;96688.69;5032737;28;20055;-80
2023/01/22 02:07:46;;;;;;;30.63;14.15;;;;;;;-1.95;96.61;96688.19;5033193;28;20049;-81
2023/01/22 02:10:12;;;;;;;32.70;15.38;;;;;;;-1.94;96.29;96690.63;5032886;28;20053;-81
2023/01/22 02:12:39;;;;;;;33.38;15.38;;;;;;;-1.92;96.27;96693.09;5043245;28;20485;-82
2023/01/22 02:15:09;;;;;;;30.20;14.30;;;;;;;-1.92;96.12;96693.91;5053240;28;20510;-84
2023/01/22 02:17:35;;;;;;;29.70;14.55;;;;;;;-1.96;96.03;96694.59;5035218;28;20046;-85
2023/01/22 02:20:02;;;;;;;34.25;14.57;;;;;;;-1.93;95.98;96697.63;5037762;28;20045;-79
2023/01/22 02:22:33;;;;;;;32.97;15.32;;;;;;;-2.00;95.84;96696.88;5058644;28;20139;-81
2023/01/22 02:25:00;;;;;;;32.15;14.90;;;;;;;-2.01;95.92;96700.59;5046805;28;20036;-79
2023/01/22 02:27:26;;;;;;;34.08;15.25;;;;;;;-2.14;96.08;96706.13;5047045;28;20045;-80
2023/01/22 02:29:53;;;;;;;32.78;15.10;;;;;;;-2.20;96.53;96702.53;5038147;28;20049;-80
2023/01/22 02:32:20;;;;;;;35.30;15.48;;;;;;;-2.16;96.47;96708.22;5041175;28;20041;-81
2023/01/22 02:34:47;;;;;;;34.25;15.13;;;;;;;-2.24;96.55;96706.72;5038920;28;20110;-80
2023/01/22 02:37:14;;;;;;;30.83;14.82;;;;;;;-2.33;97.20;96702.75;5042975;28;20179;-81
2023/01/22 02:39:42;;;;;;;29.70;14.05;;;;;;;-2.22;96.85;96693.94;5033173;28;20409;-80
2023/01/22 02:42:09;;;;;;;34.33;15.73;;;;;;;-2.18;96.61;96705.00;5032329;28;20505;-80
2023/01/22 02:44:35;;;;;;;30.55;15.20;;;;;;;-2.15;96.53;96707.19;5046343;28;20044;-82
2023/01/22 02:47:02;;;;;;;28.52;14.65;;;;;;;-2.12;96.38;96704.06;5052503;28;20041;-81
2023/01/22 02:49:28;;;;;;;29.20;13.75;;;;;;;-2.05;96.39;96699.44;5042870;28;20041;-82
2023/01/22 02:51:55;;;;;;;34.25;15.00;;;;;;;-2.10;96.26;96697.44;5042025;28;20051;-80
2023/01/22 02:54:22;;;;;;;31.80;15.00;;;;;;;-2.13;96.67;96705.13;5052754;28;20043;-83
2023/01/22 02:56:49;;;;;;;30.65;14.50;;;;;;;-2.14;96.40;96706.13;5043308;28;20056;-80
2023/01/22 02:59:16;;;;;;;34.00;15.80;;;;;;;-2.36;97.12;96706.66;5033783;28;20057;-80
2023/01/22 03:01:42;;;;;;;34.60;16.35;;;;;;;-2.28;97.15;96702.88;5038819;28;20049;-80
2023/01/22 03:04:10;;;;;;;35.03;15.57;;;;;;;-2.34;97.46;96697.66;5040641;28;20045;-81
2023/01/22 03:06:38;;;;;;;34.85;16.30;;;;;;;-2.33;97.76;96697.41;5038467;28;20057;-86
2023/01/22 03:09:06;;;;;;;33.47;14.98;;;;;;;-2.33;97.62;96696.59;5036984;28;20041;-84
2023/01/22 03:11:34;;;;;;;37.75;16.20;;;;;;;-2.36;97.71;96690.66;5040207;28;20542;-82
2023/01/22 03:22:16;;;;;;;35.30;15.85;;;;;;;-2.43;98.17;96697.16;5037921;28;20068;-81
2023/01/22 03:24:42;;;;;;;35.13;15.77;;;;;;;-2.47;98.20;96696.78;5029607;28;20045;-79
2023/01/22 03:27:09;;;;;;;35.22;14.90;;;;;;;-2.41;98.45;96701.19;5039458;28;20053;-79
2023/01/22 03:29:37;;;;;;;36.65;16.05;;;;;;;-2.40;98.23;96694.84;5034893;28;20041;-81
2023/01/22 03:32:04;;;;;;;33.38;14.77;;;;;;;-2.32;98.09;96703.56;5049747;28;20724;-80
2023/01/22 03:34:31;;;;;;;36.42;16.58;;;;;;;-2.28;97.95;96710.88;5037171;28;20405;-79
2023/01/22 03:36:58;;;;;;;33.65;15.05;;;;;;;-2.26;97.84;96707.97;5030465;28;20064;-81
2023/01/22 03:39:25;;;;;;;31.25;14.60;;;;;;;-2.22;97.68;96703.81;5029754;28;20050;-80
2023/01/22 03:41:52;;;;;;;34.03;15.00;;;;;;;-2.20;97.67;96712.38;5030061;28;20049;-81
2023/01/22 03:44:19;;;;;;;34.63;15.20;;;;;;;-2.13;97.57;96710.47;5029978;28;21315;-83
2023/01/22 03:46:46;;;;;;;31.08;15.77;;;;;;;-2.09;97.40;96708.94;5030371;28;20045;-80
2023/01/22 03:49:13;;;;;;;36.13;14.98;;;;;;;-2.03;97.13;96717.91;5018284;28;20046;-80
2023/01/22 03:51:41;;;;;;;32.13;15.48;;;;;;;-2.01;96.95;96721.97;5038173;28;20049;-79
2023/01/22 03:54:10;;;;;;;32.20;15.27;;;;;;;-1.95;96.89;96721.03;5020409;28;20041;-79
2023/01/22 03:56:37;;;;;;;32.20;14.25;;;;;;;-1.89;96.65;96713.97;5038869;28;20046;-79
2023/01/22 03:59:03;;;;;;;35.88;15.15;;;;;;;-1.87;96.41;96728.72;5031007;28;20041;-82
2023/01/22 04:01:30;;;;;;;29.30;14.63;;;;;;;-1.92;96.39;96720.59;5030961;28;20052;-81
2023/01/22 04:03:58;;;;;;;31.65;14.45;;;;;;;-1.90;96.25;96723.81;5046951;28;20044;-85
2023/01/22 04:06:25;;;;;;;33.10;15.35;;;;;;;-1.88;96.06;96721.75;5030190;28;20041;-79
2023/01/22 04:08:54;;;;;;;32.83;14.88;;;;;;;-1.93;96.25;96724.31;5030622;28;20053;-80
2023/01/22 04:11:21;;;;;;;31.45;14.68;;;;;;;-1.87;96.15;96719.91;5041079;28;20095;-82
2023/01/22 04:13:48;;;;;;;30.98;14.63;;;;;;;-1.81;95.96;96726.19;5043707;28;20056;-81
2023/01/22 04:16:15;;;;;;;32.15;15.15;;;;;;;-1.77;95.71;96732.69;5029573;28;20049;-80
2023/01/22 04:18:42;;;;;;;29.90;14.50;;;;;;;-1.76;95.67;96728.97;5036266;28;20041;-81
2023/01/22 04:21:10;;;;;;;33.95;16.48;;;;;;;-1.82;95.76;96740.56;5032975;28;20053;-79
2023/01/22 04:23:36;;;;;;;31.85;15.23;;;;;;;-1.80;95.66;96733.13;5049823;28;20041;-80
2023/01/22 04:26:03;;;;;;;31.10;15.00;;;;;;;-1.82;95.31;96740.56;5032946;28;20049;-78
2023/01/22 04:28:30;;;;;;;32.80;15.77;;;;;;;-1.98;95.40;96732.19;5036193;28;20051;-81
2023/01/22 04:30:56;;;;;;;30.92;15.35;;;;;;;-1.87;95.29;96736.72;5038371;28;20045;-81
2023/01/22 04:33:23;;;;;;;34.33;15.45;;;;;;;-1.85;95.13;96737.28;5037906;28;20052;-80
2023/01/22 04:35:51;;;;;;;31.60;14.57;;;;;;;-1.84;94.96;96738.91;5030184;28;20049;-80
2023/01/22 04:38:19;;;;;;;34.50;14.77;;;;;;;-1.90;95.01;96741.69;5029382;28;20041;-82
2023/01/22 04:40:45;;;;;;;30.05;14.65;;;;;;;-1.91;94.99;96738.22;5044596;28;20044;-84
2023/01/22 04:43:12;;;;;;;37.17;15.57;;;;;;;-1.90;94.72;96747.03;5031222;28;20050;-83
2023/01/22 04:45:39;;;;;;;32.45;15.35;;;;;;;-1.91;94.72;96751.56;5038412;28;20049;-80
2023/01/22 04:48:07;;;;;;;31.13;15.25;;;;;;;-1.92;94.53;96755.28;5029174;28;20049;-81
2023/01/22 04:50:34;;;;;;;33.10;15.68;;;;;;;-1.96;94.50;96745.28;5029472;28;20444;-80
2023/01/22 04:53:01;;;;;;;35.60;15.52;;;;;;;-1.99;94.39;96751.88;5048069;28;20048;-78
2023/01/22 04:55:29;;;;;;;36.63;15.43;;;;;;;-1.99;94.47;96751.06;5032970;28;20406;-78
2023/01/22 04:57:57;;;;;;;30.73;14.27;;;;;;;-1.98;94.63;96753.53;5040830;28;20046;-80
2023/01/22 05:00:25;;;;;;;32.50;14.50;;;;;;;-2.03;94.45;96750.75;5041374;28;20489;-81
2023/01/22 05:02:56;;;;;;;34.00;15.57;;;;;;;-2.05;94.37;96752.00;5040666;28;20516;-81
2023/01/22 05:05:23;;;;;;;33.63;15.38;;;;;;;-2.10;94.34;96758.00;5033000;28;20056;-83
2023/01/22 05:07:49;;;;;;;32.35;14.80;;;;;;;-2.14;94.49;96756.81;5040253;28;20045;-84
2023/01/22 05:10:16;;;;;;;33.38;15.45;;;;;;;-2.24;94.97;96756.59;5044954;28;20053;-84
2023/01/22 05:12:44;;;;;;;33.05;15.10;;;;;;;-2.20;94.67;96758.56;5059639;28;20048;-81
2023/01/22 05:15:11;;;;;;;31.95;14.65;;;;;;;-2.23;94.08;96756.34;5033080;28;20049;-82
2023/01/22 05:17:37;;;;;;;27.85;13.60;;;;;;;-2.29;93.63;96761.78;5032695;28;20049;-79
2023/01/22 05:20:05;;;;;;;28.02;13.32;;;;;;;-2.36;92.91;96757.34;5032967;28;20045;-80
2023/01/22 05:22:31;;;;;;;27.55;12.95;;;;;;;-2.42;91.98;96763.59;5044728;28;20044;-81
2023/01/22 05:24:57;;;;;;;27.95;12.73;;;;;;;-2.52;91.12;96773.16;5052783;28;20041;-84
2023/01/22 05:27:24;;;;;;;26.35;12.23;;;;;;;-2.66;90.10;96767.19;5033715;28;20041;-81
2023/01/22 05:29:52;;;;;;;22.00;10.65;;;;;;;-2.84;89.38;96775.19;5032820;28;20433;-82
2023/01/22 05:32:18;;;;;;;18.48;9.75;;;;;;;-2.93;89.12;96772.81;5034597;28;20045;-83
2023/01/22 05:34:45;;;;;;;21.50;10.63;;;;;;;-2.99;88.87;96773.69;5044674;28;20051;-79
2023/01/22 05:37:11;;;;;;;17.95;9.95;;;;;;;-3.01;88.75;96774.97;5043742;28;20440;-80
2023/01/22 05:39:38;;;;;;;15.20;8.95;;;;;;;-3.03;88.96;96783.16;5044105;28;20045;-80
2023/01/22 05:42:04;;;;;;;18.38;9.73;;;;;;;-3.03;89.14;96788.50;5043820;28;20046;-80
2023/01/22 05:44:31;;;;;;;20.20;10.02;;;;;;;-3.03;89.48;96779.69;5052563;28;20049;-83
2023/01/22 05:46:59;;;;;;;24.63;11.40;;;;;;;-3.02;89.85;96786.66;5052572;28;20045;-80
2023/01/22 05:49:25;;;;;;;26.73;11.48;;;;;;;-3.01;90.33;96786.44;5035913;28;20324;-83
2023/01/22 05:51:52;;;;;;;27.23;12.52;;;;;;;-2.98;90.69;96785.16;5052437;28;20047;-80
2023/01/22 05:54:18;;;;;;;31.48;13.77;;;;;;;-2.95;90.75;96790.88;5040836;28;20524;-80
2023/01/22 05:56:45;;;;;;;30.63;14.70;;;;;;;-2.93;91.31;96788.78;5038118;28;20076;-84
2023/01/22 05:59:12;;;;;;;31.90;15.02;;;;;;;-2.95;91.78;96790.88;5043043;28;20420;-85
2023/01/22 06:01:38;;;;;;;27.00;12.20;;;;;;;-3.03;90.52;96788.50;5038560;28;20065;-80
2023/01/22 06:04:06;;;;;;;20.98;9.90;;;;;;;-3.10;89.46;96787.75;5032351;28;20049;-81
2023/01/22 06:06:33;;;;;;;16.35;8.52;;;;;;;-3.20;88.08;96798.91;5052896;28;20037;-84
2023/01/22 06:08:59;;;;;;;16.08;8.15;;;;;;;-3.27;87.24;96802.69;5043479;28;20049;-84
2023/01/22 06:11:26;;;;;;;19.38;9.38;;;;;;;-3.30;86.42;96797.78;5035583;28;20523;-81
2023/01/22 06:13:52;;;;;;;26.13;10.57;;;;;;;-3.37;85.64;96802.38;5036713;28;20042;-80
2023/01/22 06:16:19;;;;;;;27.48;12.43;;;;;;;-3.42;86.08;96800.38;5039968;28;20424;-81
2023/01/22 06:18:46;;;;;;;22.40;11.75;;;;;;;-3.37;87.43;96807.69;5038803;28;20045;-79
2023/01/22 06:21:14;;;;;;;23.27;11.10;;;;;;;-3.30;88.75;96806.59;5033457;28;20061;-80
2023/01/22 06:23:40;;;;;;;23.77;11.77;;;;;;;-3.39;89.01;96805.28;5046362;28;20408;-81
2023/01/22 06:26:07;;;;;;;27.45;13.00;;;;;;;-3.38;89.22;96809.56;5036353;28;20041;-84
2023/01/22 06:28:33;;;;;;;27.00;11.85;;;;;;;-3.36;89.24;96809.31;5038741;28;20401;-84
2023/01/22 06:31:04;;;;;;;25.58;11.50;;;;;;;-3.35;89.27;96811.75;5049697;28;20040;-85
2023/01/22 06:33:32;;;;;;;25.50;11.98;;;;;;;-3.27;89.70;96813.34;5033634;28;20049;-80
2023/01/22 06:35:58;;;;;;;27.17;12.43;;;;;;;-3.20;90.47;96811.44;5032946;28;20156;-83
2023/01/22 06:38:26;;;;;;;25.92;12.65;;;;;;;-3.15;90.79;96817.72;5043858;28;20041;-83
2023/01/22 06:40:53;;;;;;;28.80;13.45;;;;;;;-3.11;91.18;96807.44;5045157;28;20044;-84
2023/01/22 06:43:20;;;;;;;26.52;12.35;;;;;;;-3.03;91.87;96809.81;5039971;28;20041;-86
2023/01/22 06:45:46;;;;;;;33.47;13.85;;;;;;;-3.06;91.84;96810.28;5041694;28;20053;-81
2023/01/22 06:48:13;;;;;;;32.40;14.48;;;;;;;-3.03;92.00;96812.47;5035481;28;20037;-86
2023/01/22 06:50:40;;;;;;;33.05;14.43;;;;;;;-2.92;92.35;96809.09;5042009;28;20044;-81
2023/01/22 06:53:07;;;;;;;35.30;14.68;;;;;;;-3.00;92.49;96809.38;5034422;28;20048;-82
2023/01/22 06:55:35;;;;;;;37.50;14.77;;;;;;;-2.97;92.88;96818.78;5042321;28;20584;-83
2023/01/22 06:58:01;;;;;;;37.67;15.90;;;;;;;-2.89;93.17;96821.97;5040724;28;20046;-82
2023/01/22 07:00:28;;;;;;;47.00;18.42;;;;;;;-3.05;94.76;96833.22;5032059;28;20041;-83
2023/01/22 07:02:55;;;;;;;48.40;18.02;;;;;;;-3.07;95.98;96823.81;5031367;28;20409;-81
2023/01/22 07:05:22;;;;;;;50.45;19.55;;;;;;;-2.98;96.10;96831.28;5031443;28;20050;-84
2023/01/22 07:07:52;;;;;;;47.38;17.33;;;;;;;-3.09;97.15;96834.69;5031839;28;20045;-80
2023/01/22 07:10:18;;;;;;;47.67;18.75;;;;;;;-3.02;97.57;96843.44;5038773;28;20046;-83
2023/01/22 07:12:46;;;;;;;48.00;18.08;;;;;;;-2.85;97.36;96837.53;5037392;28;20059;-86
2023/01/22 07:15:13;;;;;;;47.22;19.27;;;;;;;-2.77;97.08;96839.88;5031623;28;20057;-82
2023/01/22 07:17:39;;;;;;;42.90;17.52;;;;;;;-2.71;96.89;96844.34;5030747;28;20048;-81
2023/01/22 07:20:06;;;;;;;39.22;16.60;;;;;;;-2.66;96.90;96857.84;5030351;28;20049;-82
2023/01/22 07:22:33;;;;;;;38.72;16.58;;;;;;;-2.59;97.03;96855.09;5030977;28;20045;-80
2023/01/22 07:24:59;;;;;;;45.58;17.92;;;;;;;-2.57;96.96;96861.00;5030799;28;20520;-80
2023/01/22 07:27:26;;;;;;;49.78;17.52;;;;;;;-2.56;96.83;96855.44;5031637;28;20527;-80
2023/01/22 07:29:54;;;;;;;40.70;16.48;;;;;;;-2.58;96.93;96859.38;5039350;28;20049;-81
2023/01/22 07:32:20;;;;;;;46.05;18.80;;;;;;;-2.53;97.00;96859.53;5038365;28;20049;-79
2023/01/22 07:34:47;;;;;;;45.28;18.08;;;;;;;-2.57;96.77;96856.47;5039024;28;20041;-81
2023/01/22 07:37:13;;;;;;;43.88;18.40;;;;;;;-2.80;96.98;96857.16;5029830;28;20049;-79
2023/01/22 07:39:39;;;;;;;42.47;16.48;;;;;;;-2.74;98.04;96858.13;5030395;28;20048;-83
2023/01/22 07:42:06;;;;;;;43.25;17.60;;;;;;;-2.71;97.87;96860.34;5031114;28;20041;-81
2023/01/22 07:44:33;;;;;;;42.63;17.42;;;;;;;-2.79;98.14;96849.97;5037695;28;20061;-78
2023/01/22 07:47:00;;;;;;;51.28;18.63;;;;;;;-2.82;99.39;96853.06;5030100;28;20072;-84
2023/01/22 07:49:27;;;;;;;43.63;18.50;;;;;;;-2.63;99.18;96849.38;5038097;28;20048;-79
2023/01/22 07:51:53;;;;;;;42.88;16.50;;;;;;;-2.49;98.58;96853.53;5030760;28;20151;-80
2023/01/22 07:54:20;;;;;;;42.22;18.00;;;;;;;-2.43;98.13;96854.50;5030045;28;20041;-82
2023/01/22 07:56:47;;;;;;;46.25;18.42;;;;;;;-2.49;97.60;96861.53;5038873;28;20037;-80
2023/01/22 07:59:13;;;;;;;39.05;16.20;;;;;;;-2.45;97.46;96860.06;5038779;28;20046;-82
2023/01/22 08:01:40;;;;;;;44.92;17.73;;;;;;;-2.37;97.34;96867.75;5030153;28;20052;-81
2023/01/22 08:04:08;;;;;;;46.28;17.73;;;;;;;-2.25;96.94;96874.97;5030578;28;20527;-80
2023/01/22 08:06:34;;;;;;;39.92;15.88;;;;;;;-2.23;96.80;96878.25;5042090;28;20484;-80
2023/01/22 08:09:01;;;;;;;42.97;17.67;;;;;;;-2.23;96.86;96878.25;5033172;28;20049;-83
2023/01/22 08:11:27;;;;;;;38.92;17.48;;;;;;;-2.13;96.66;96891.88;5030514;28;20045;-87
2023/01/22 08:13:54;;;;;;;39.53;16.95;;;;;;;-2.07;96.48;96887.50;5030740;28;20041;-78
2023/01/22 08:16:21;;;;;;;40.13;16.63;;;;;;;-2.02;96.27;96890.31;5029846;28;20417;-83
2023/01/22 08:18:47;;;;;;;39.88;15.60;;;;;;;-1.98;96.03;96897.66;5031023;28;20042;-81
2023/01/22 08:21:15;;;;;;;39.92;17.10;;;;;;;-1.94;95.87;96898.81;5032691;28;20549;-85
2023/01/22 08:23:41;;;;;;;35.38;15.82;;;;;;;-2.00;95.82;96899.72;5033262;28;20041;-85
2023/01/22 08:26:08;;;;;;;34.58;16.20;;;;;;;-2.06;95.41;96910.47;5033017;28;20044;-81
2023/01/22 08:28:37;;;;;;;36.85;16.75;;;;;;;-1.89;95.30;96898.13;5038606;28;20041;-83
2023/01/22 08:31:04;;;;;;;34.33;15.32;;;;;;;-1.96;94.98;96906.25;5053069;28;20631;-83
2023/01/22 08:33:33;;;;;;;34.40;15.07;;;;;;;-1.95;94.68;96917.72;5036248;28;20508;-81
2023/01/22 08:35:59;;;;;;;32.50;15.48;;;;;;;-1.94;94.32;96917.50;5044075;28;20045;-81
2023/01/22 08:38:27;;;;;;;32.15;14.88;;;;;;;-1.85;94.19;96910.00;5042510;28;20046;-85
2023/01/22 08:40:54;;;;;;;35.33;15.93;;;;;;;-1.76;93.39;96915.84;5044498;28;20048;-81
2023/01/22 08:43:20;;;;;;;29.75;14.38;;;;;;;-1.73;93.19;96908.19;5044648;28;20485;-81
2023/01/22 08:45:49;;;;;;;33.75;16.10;;;;;;;-1.75;92.90;96920.16;5035942;28;20033;-85
2023/01/22 08:48:15;;;;;;;33.80;15.45;;;;;;;-1.79;92.57;96922.44;5044257;28;20046;-83
2023/01/22 08:50:42;;;;;;;32.50;14.70;;;;;;;-1.76;92.58;96926.53;5042148;28;20041;-80
2023/01/22 08:53:08;;;;;;;33.42;14.05;;;;;;;-1.67;92.25;96925.16;5035834;28;20042;-82
2023/01/22 08:55:36;;;;;;;33.78;15.35;;;;;;;-1.77;91.95;96930.25;5034215;28;20064;-79
2023/01/22 08:58:03;;;;;;;32.90;14.63;;;;;;;-1.88;92.18;96929.97;5051867;28;20052;-79
2023/01/22 09:00:29;;;;;;;34.67;15.05;;;;;;;-1.73;91.76;96942.88;5042968;28;20042;-80
2023/01/22 09:02:59;;;;;;;29.50;14.27;;;;;;;-1.63;91.83;96937.03;5033932;28;20049;-85
2023/01/22 09:05:26;;;;;;;31.98;15.15;;;;;;;-1.52;91.07;96949.59;5033138;28;20045;-83
2023/01/22 09:07:52;;;;;;;34.95;16.85;;;;;;;-1.51;91.21;96945.91;5033883;28;20045;-84
2023/01/22 09:10:19;;;;;;;37.60;16.02;;;;;;;-1.50;91.12;96958.22;5042256;28;20052;-83
2023/01/22 09:12:47;;;;;;;33.45;15.35;;;;;;;-1.44;90.94;96956.50;5035225;28;20044;-80
2023/01/22 09:15:14;;;;;;;34.95;15.70;;;;;;;-1.37;90.74;96973.22;5034435;28;20048;-80
2023/01/22 09:17:41;;;;;;;29.80;14.38;;;;;;;-1.28;90.51;96971.06;5042623;28;20045;-79
2023/01/22 09:20:09;;;;;;;31.77;15.63;;;;;;;-1.28;90.18;96971.88;5048859;28;20040;-79
2023/01/22 09:22:36;;;;;;;30.42;15.02;;;;;;;-1.20;89.70;96971.56;5033428;28;20534;-80
2023/01/22 09:25:03;;;;;;;34.45;15.82;;;;;;;-1.29;88.93;96974.78;5032514;28;20405;-78
2023/01/22 09:27:30;;;;;;;33.28;14.85;;;;;;;-1.20;89.08;96978.75;5034207;28;20041;-87
2023/01/22 09:29:58;;;;;;;33.58;14.98;;;;;;;-1.10;88.27;96973.66;5040907;28;20059;-83
2023/01/22 09:32:25;;;;;;;35.33;14.98;;;;;;;-1.09;88.28;96976.13;5040707;28;20041;-84
2023/01/22 09:34:51;;;;;;;34.35;14.90;;;;;;;-1.04;88.63;96983.47;5034236;28;20041;-84
2023/01/22 09:37:18;;;;;;;34.65;15.25;;;;;;;-0.95;88.67;96976.72;5041436;28;20056;-86
2023/01/22 09:39:44;;;;;;;36.40;16.17;;;;;;;-0.90;88.22;96974.16;5032796;28;20442;-80
2023/01/22 09:42:18;;;;;;;29.98;14.02;;;;;;;-0.90;87.47;96978.72;5033073;28;20053;-86
2023/01/22 09:44:49;;;;;;;36.20;16.20;;;;;;;-1.30;86.36;96973.97;5033594;28;20042;-87
2023/01/22 09:47:21;;;;;;;34.13;16.25;;;;;;;-1.12;85.98;96975.75;5032032;28;20053;-80
2023/01/22 09:49:53;;;;;;;32.92;15.02;;;;;;;-1.05;86.47;96973.78;5032242;28;20050;-81
2023/01/22 09:52:21;;;;;;;33.83;16.25;;;;;;;-1.09;87.14;96964.63;5043524;28;20072;-79
2023/01/22 09:54:48;;;;;;;34.78;16.20;;;;;;;-1.01;86.97;96963.47;5038640;28;20056;-79
2023/01/22 09:57:15;;;;;;;36.67;16.55;;;;;;;-0.95;86.91;96965.22;5034312;28;20049;-79
2023/01/22 09:59:47;;;;;;;33.63;15.35;;;;;;;-0.95;87.16;96966.03;5033313;28;20071;-85
2023/01/22 10:02:24;;;;;;;32.78;15.75;;;;;;;-1.04;87.22;96972.78;5042206;28;20501;-78
2023/01/22 10:04:53;;;;;;;36.95;16.10;;;;;;;-1.00;87.09;96968.56;5037117;28;20115;-82
2023/01/22 10:07:25;;;;;;;31.77;14.73;;;;;;;-0.88;87.03;96977.44;5034990;28;20044;-80
2023/01/22 10:09:54;;;;;;;31.80;16.42;;;;;;;-0.78;86.64;96974.22;5045239;28;20666;-82
2023/01/22 10:12:21;;;;;;;44.53;17.58;;;;;;;-0.83;86.30;96980.25;5043269;28;20124;-79
2023/01/22 10:14:49;;;;;;;34.63;16.13;;;;;;;-0.73;86.50;96970.81;5037351;28;20064;-79
2023/01/22 10:17:22;;;;;;;33.45;15.30;;;;;;;-0.76;86.52;96976.66;5039490;28;20041;-79
2023/01/22 10:19:54;;;;;;;35.67;15.15;;;;;;;-0.91;86.46;96983.25;5039012;28;20051;-81
2023/01/22 10:22:23;;;;;;;30.70;15.18;;;;;;;-1.17;87.82;96983.66;5031570;28;20045;-79
2023/01/22 10:24:50;;;;;;;33.88;15.77;;;;;;;-1.03;87.88;96979.75;5040146;28;20041;-81
2023/01/22 10:27:21;;;;;;;30.58;15.30;;;;;;;-1.05;87.66;96982.63;5041045;28;20040;-79
2023/01/22 10:29:59;;;;;;;34.22;16.45;;;;;;;-0.98;87.13;96981.72;5043440;28;20044;-80
2023/01/22 10:32:29;;;;;;;36.03;15.55;;;;;;;-1.06;87.35;96978.31;5039608;28;20038;-79
2023/01/22 10:35:01;;;;;;;34.92;15.80;;;;;;;-1.00;88.07;96975.78;5047867;28;20047;-79
2023/01/22 10:37:29;;;;;;;31.13;14.90;;;;;;;-0.99;87.92;96978.25;5035106;28;20071;-79
2023/01/22 10:39:58;;;;;;;33.47;15.63;;;;;;;-0.94;87.22;96980.22;5043611;28;20276;-78
2023/01/22 10:42:27;;;;;;;30.02;15.15;;;;;;;-0.92;87.14;96973.59;5042733;28;20087;-79
2023/01/22 10:45:14;;;;;;;34.25;16.35;;;;;;;-0.96;86.93;96975.09;5044069;28;20144;-79
2023/01/22 10:47:42;;;;;;;34.03;16.88;;;;;;;-0.90;86.99;96979.53;5031058;28;20064;-79
2023/01/22 10:50:14;;;;;;;36.00;16.33;;;;;;;-0.88;85.69;96982.78;5046109;28;20116;-80
2023/01/22 10:52:43;;;;;;;32.07;15.23;;;;;;;-0.65;85.01;96979.34;5039405;28;20056;-78
2023/01/22 10:55:21;;;;;;;32.38;15.07;;;;;;;-0.63;83.99;96979.09;5030410;28;20295;-79
2023/01/22 10:57:52;;;;;;;30.35;15.02;;;;;;;-0.48;84.08;96986.66;5032528;28;20046;-79
2023/01/22 11:00:25;;;;;;;32.38;15.80;;;;;;;-0.56;84.06;96980.63;5033303;28;20045;-78
2023/01/22 11:02:53;;;;;;;29.85;14.60;;;;;;;-0.51;83.96;96977.25;5035532;28;20555;-79
2023/01/22 11:05:22;;;;;;;33.63;15.20;;;;;;;-0.35;83.55;96986.44;5033388;28;20397;-79
2023/01/22 11:07:52;;;;;;;27.45;14.65;;;;;;;-0.28;83.91;96974.56;5035361;28;20048;-79
2023/01/22 11:10:24;;;;;;;26.65;13.55;;;;;;;-0.35;82.60;96981.91;5033144;28;20048;-79
2023/01/22 11:12:55;;;;;;;31.30;14.52;;;;;;;-0.38;82.07;96985.03;5035571;28;20045;-79
2023/01/22 11:15:30;;;;;;;25.88;13.32;;;;;;;-0.42;82.33;96983.06;5038766;28;20038;-79
2023/01/22 11:18:01;;;;;;;29.65;13.77;;;;;;;-0.38;82.61;96982.34;5038847;28;20037;-78
2023/01/22 11:20:32;;;;;;;28.38;13.25;;;;;;;-0.28;82.94;96977.25;5030300;28;20045;-79
2023/01/22 11:23:10;;;;;;;29.38;13.68;;;;;;;-0.25;82.22;96980.50;5030733;28;20155;-79
2023/01/22 11:25:41;;;;;;;25.40;13.07;;;;;;;-0.32;81.65;96976.06;5027211;28;20290;-80
2023/01/22 11:28:19;;;;;;;28.80;13.63;;;;;;;-0.40;81.87;96976.44;5032735;28;20620;-78